createdAt,value
2018-02-25T00:00:28.950Z,99263.63
2018-02-25T00:02:55.373Z,99269.45
2018-02-25T00:05:21.757Z,99259.64
2018-02-25T00:07:48.163Z,99266.91
2018-02-25T00:10:14.635Z,99268.14
2018-02-25T00:12:41.044Z,99269.20
2018-02-25T00:15:07.425Z,99274.77
2018-02-25T00:17:33.890Z,99274.27
2018-02-25T00:20:00.325Z,99274.43
2018-02-25T00:22:28.748Z,99273.34
2018-02-25T00:24:55.236Z,99279.04
2018-02-25T00:27:21.651Z,99281.61
2018-02-25T00:29:48.113Z,99278.71
2018-02-25T00:32:14.545Z,99280.05
2018-02-25T00:34:41.073Z,99282.34
2018-02-25T00:37:07.429Z,99286.28
2018-02-25T00:39:33.861Z,99275.97
2018-02-25T00:42:00.293Z,99274.83
2018-02-25T00:44:26.733Z,99275.97
2018-02-25T00:46:53.094Z,99274.66
2018-02-25T00:49:19.513Z,99272.77
2018-02-25T00:51:45.921Z,99280.66
2018-02-25T00:54:12.409Z,99274.53
2018-02-25T00:56:38.848Z,99279.45
2018-02-25T00:59:05.220Z,99278.58
2018-02-25T01:01:31.666Z,99281.80
2018-02-25T01:03:58.033Z,99278.88
2018-02-25T01:06:24.444Z,99283.27
2018-02-25T01:08:50.946Z,99277.70
2018-02-25T01:11:17.349Z,99280.52
2018-02-25T01:13:43.753Z,99283.02
2018-02-25T01:16:10.241Z,99282.84
2018-02-25T01:18:36.609Z,99281.80
2018-02-25T01:21:02.950Z,99281.89
2018-02-25T01:23:29.397Z,99279.70
2018-02-25T01:25:55.784Z,99286.98
2018-02-25T01:28:22.182Z,99291.98
2018-02-25T01:30:48.585Z,99295.50
2018-02-25T01:33:15.038Z,99297.27
2018-02-25T01:35:41.524Z,99306.50
2018-02-25T01:38:07.948Z,99306.69
2018-02-25T01:40:34.309Z,99316.31
2018-02-25T01:43:00.773Z,99313.68
2018-02-25T01:45:27.172Z,99313.11
2018-02-25T01:47:53.614Z,99315.78
2018-02-25T01:50:20.095Z,99316.70
2018-02-25T01:52:46.481Z,99319.98
2018-02-25T01:55:12.906Z,99319.16
2018-02-25T01:57:39.314Z,99323.89
2018-02-25T02:00:05.648Z,99329.70
2018-02-25T02:02:32.096Z,99327.09
2018-02-25T02:04:58.454Z,99327.23
2018-02-25T02:07:24.878Z,99321.02
2018-02-25T02:09:51.397Z,99332.77
2018-02-25T02:12:17.924Z,99333.59
2018-02-25T02:14:44.297Z,99330.66
2018-02-25T02:17:10.704Z,99337.06
2018-02-25T02:19:37.162Z,99335.36
2018-02-25T02:22:03.626Z,99327.28
2018-02-25T02:24:30.081Z,99334.74
2018-02-25T02:26:56.421Z,99336.23
2018-02-25T02:29:23.358Z,99338.66
2018-02-25T02:31:49.817Z,99341.98
2018-02-25T02:34:16.267Z,99338.28
2018-02-25T02:36:42.610Z,99336.36
2018-02-25T02:39:09.054Z,99351.20
2018-02-25T02:41:35.467Z,99349.62
2018-02-25T02:44:01.891Z,99355.92
2018-02-25T02:46:28.389Z,99358.20
2018-02-25T02:48:54.782Z,99358.03
2018-02-25T02:51:21.117Z,99364.71
2018-02-25T02:53:47.585Z,99361.94
2018-02-25T02:56:14.225Z,99369.77
2018-02-25T02:58:40.615Z,99367.38
2018-02-25T03:01:07.010Z,99370.19
2018-02-25T03:03:33.446Z,99372.17
2018-02-25T03:05:59.862Z,99379.94
2018-02-25T03:08:26.234Z,99388.36
2018-02-25T03:10:52.578Z,99386.20
2018-02-25T03:13:19.061Z,99383.48
2018-02-25T03:15:45.470Z,99385.09
2018-02-25T03:18:11.898Z,99390.45
2018-02-25T03:20:38.253Z,99393.56
2018-02-25T03:23:04.754Z,99397.37
2018-02-25T03:25:31.163Z,99393.27
2018-02-25T03:27:57.543Z,99399.86
2018-02-25T03:30:23.948Z,99399.36
2018-02-25T03:32:50.465Z,99406.27
2018-02-25T03:35:16.888Z,99408.75
2018-02-25T03:37:43.257Z,99412.77
2018-02-25T03:40:09.657Z,99410.94
2018-02-25T03:42:36.014Z,99412.89
2018-02-25T03:45:02.377Z,99410.16
2018-02-25T03:47:28.809Z,99411.16
2018-02-25T03:49:55.164Z,99412.11
2018-02-25T03:52:21.534Z,99410.02
2018-02-25T03:54:48.098Z,99415.36
2018-02-25T03:57:14.566Z,99411.33
2018-02-25T03:59:40.918Z,99416.54
2018-02-25T04:02:07.337Z,99417.06
2018-02-25T04:04:33.849Z,99412.70
2018-02-25T04:07:00.304Z,99418.16
2018-02-25T04:09:26.768Z,99413.66
2018-02-25T04:11:53.167Z,99413.95
2018-02-25T04:14:19.533Z,99408.45
2018-02-25T04:16:45.978Z,99409.98
2018-02-25T04:19:12.365Z,99411.30
2018-02-25T04:21:38.877Z,99416.01
2018-02-25T04:24:05.334Z,99417.89
2018-02-25T04:26:31.666Z,99418.67
2018-02-25T04:28:58.057Z,99417.95
2018-02-25T04:31:24.401Z,99423.89
2018-02-25T04:33:50.740Z,99422.95
2018-02-25T04:36:17.146Z,99429.61
2018-02-25T04:38:43.578Z,99429.67
2018-02-25T04:41:10.063Z,99439.52
2018-02-25T04:43:36.461Z,99452.53
2018-02-25T04:46:02.865Z,99453.31
2018-02-25T04:48:29.255Z,99459.39
2018-02-25T04:50:55.677Z,99461.27
2018-02-25T04:53:22.102Z,99463.88
2018-02-25T04:55:48.589Z,99473.84
2018-02-25T04:58:14.945Z,99483.56
2018-02-25T05:00:41.315Z,99484.09
2018-02-25T05:03:07.809Z,99476.79
2018-02-25T05:05:34.168Z,99480.19
2018-02-25T05:08:00.598Z,99478.46
2018-02-25T05:10:27.031Z,99488.84
2018-02-25T05:12:53.400Z,99495.44
2018-02-25T05:15:19.774Z,99490.60
2018-02-25T05:17:46.156Z,99498.86
2018-02-25T05:20:12.600Z,99499.23
2018-02-25T05:22:39.034Z,99495.30
2018-02-25T05:25:05.516Z,99502.38
2018-02-25T05:27:32.160Z,99508.05
2018-02-25T05:29:58.621Z,99508.02
2018-02-25T05:32:25.106Z,99509.63
2018-02-25T05:34:51.470Z,99513.45
2018-02-25T05:37:17.866Z,99515.77
2018-02-25T05:39:44.253Z,99524.11
2018-02-25T05:42:10.605Z,99530.00
2018-02-25T05:44:37.069Z,99537.17
2018-02-25T05:47:03.509Z,99539.53
2018-02-25T05:49:29.902Z,99539.47
2018-02-25T05:51:56.250Z,99538.94
2018-02-25T05:54:22.691Z,99541.14
2018-02-25T05:56:49.094Z,99549.76
2018-02-25T05:59:15.522Z,99547.87
2018-02-25T06:01:41.947Z,99546.95
2018-02-25T06:04:08.349Z,99556.70
2018-02-25T06:06:34.717Z,99557.34
2018-02-25T06:09:01.170Z,99554.53
2018-02-25T06:11:27.528Z,99549.20
2018-02-25T06:13:53.941Z,99557.84
2018-02-25T06:16:20.354Z,99562.96
2018-02-25T06:18:46.681Z,99562.48
2018-02-25T06:21:13.066Z,99563.89
2018-02-25T06:23:39.462Z,99564.52
2018-02-25T06:26:05.860Z,99559.98
2018-02-25T06:28:32.277Z,99563.77
2018-02-25T06:30:58.716Z,99563.89
2018-02-25T06:33:25.198Z,99575.95
2018-02-25T06:35:51.606Z,99585.02
2018-02-25T06:38:18.022Z,99583.32
2018-02-25T06:40:44.427Z,99581.72
2018-02-25T06:43:10.856Z,99583.45
2018-02-25T06:45:37.284Z,99585.56
2018-02-25T06:48:03.641Z,99589.72
2018-02-25T06:50:29.977Z,99597.27
2018-02-25T06:52:56.370Z,99597.03
2018-02-25T06:55:22.740Z,99599.91
2018-02-25T06:57:49.091Z,99598.56
2018-02-25T07:00:15.501Z,99606.58
2018-02-25T07:02:41.919Z,99610.86
2018-02-25T07:05:08.265Z,99619.87
2018-02-25T07:07:34.620Z,99615.04
2018-02-25T07:10:01.184Z,99621.03
2018-02-25T07:12:27.874Z,99618.16
2018-02-25T07:14:54.213Z,99626.79
2018-02-25T07:17:20.618Z,99622.71
2018-02-25T07:19:46.995Z,99626.30
2018-02-25T07:22:13.370Z,99624.98
2018-02-25T07:24:39.777Z,99625.00
2018-02-25T07:27:06.165Z,99620.34
2018-02-25T07:29:32.541Z,99618.84
2018-02-25T07:31:59.041Z,99623.48
2018-02-25T07:34:25.382Z,99630.19
2018-02-25T07:36:51.868Z,99636.25
2018-02-25T07:39:18.275Z,99637.28
2018-02-25T07:41:44.624Z,99654.08
2018-02-25T07:44:11.021Z,99659.06
2018-02-25T07:46:37.534Z,99655.81
2018-02-25T07:49:03.990Z,99649.20
2018-02-25T07:51:30.489Z,99648.70
2018-02-25T07:53:56.881Z,99644.34
2018-02-25T07:56:23.285Z,99650.74
2018-02-25T07:58:49.652Z,99654.78
2018-02-25T08:01:16.102Z,99650.48
2018-02-25T08:03:42.500Z,99655.89
2018-02-25T08:06:08.933Z,99648.30
2018-02-25T08:08:35.369Z,99653.34
2018-02-25T08:11:01.708Z,99655.88
2018-02-25T08:13:28.065Z,99649.78
2018-02-25T08:15:54.461Z,99660.17
2018-02-25T08:18:20.822Z,99667.53
2018-02-25T08:20:47.208Z,99665.71
2018-02-25T08:23:13.739Z,99661.77
2018-02-25T08:25:40.123Z,99663.81
2018-02-25T08:28:06.518Z,99673.93
2018-02-25T08:30:33.014Z,99670.09
2018-02-25T08:32:59.386Z,99677.09
2018-02-25T08:35:26.244Z,99679.42
2018-02-25T08:37:52.682Z,99678.52
2018-02-25T08:40:19.058Z,99677.36
2018-02-25T08:42:45.486Z,99676.44
2018-02-25T08:45:11.950Z,99672.24
2018-02-25T08:47:38.348Z,99685.75
2018-02-25T08:50:04.937Z,99683.84
2018-02-25T08:52:31.385Z,99685.48
2018-02-25T08:54:57.721Z,99690.39
2018-02-25T08:57:24.133Z,99686.59
2018-02-25T08:59:50.522Z,99686.08
2018-02-25T09:02:16.925Z,99690.34
2018-02-25T09:04:43.415Z,99691.31
2018-02-25T09:07:09.774Z,99693.38
2018-02-25T09:09:36.117Z,99699.20
2018-02-25T09:12:02.530Z,99700.83
2018-02-25T09:14:29.106Z,99704.98
2018-02-25T09:16:55.650Z,99702.48
2018-02-25T09:19:22.013Z,99706.56
2018-02-25T09:22:00.297Z,99702.41
2018-02-25T09:24:46.758Z,99700.20
2018-02-25T09:27:28.112Z,99705.19
2018-02-25T09:29:57.852Z,99701.33
2018-02-25T09:32:37.260Z,99701.50
2018-02-25T09:35:05.263Z,99701.73
2018-02-25T09:37:31.619Z,99704.23
2018-02-25T09:40:02.733Z,99705.42
2018-02-25T09:42:35.917Z,99714.94
2018-02-25T09:45:08.533Z,99722.41
2018-02-25T09:47:42.401Z,99716.48
2018-02-25T09:50:10.130Z,99710.29
2018-02-25T09:52:36.701Z,99712.80
2018-02-25T09:55:03.398Z,99714.67
2018-02-25T09:57:31.754Z,99708.52
2018-02-25T09:59:59.229Z,99712.50
2018-02-25T10:02:25.589Z,99708.69
2018-02-25T10:04:52.006Z,99706.31
2018-02-25T10:07:18.438Z,99713.45
2018-02-25T10:09:44.826Z,99711.23
2018-02-25T10:12:11.270Z,99713.58
2018-02-25T10:14:37.623Z,99706.44
2018-02-25T10:17:03.965Z,99705.23
2018-02-25T10:19:30.337Z,99713.40
2018-02-25T10:21:56.727Z,99710.94
2018-02-25T10:24:23.102Z,99714.35
2018-02-25T10:26:49.500Z,99713.67
2018-02-25T10:29:15.873Z,99717.52
2018-02-25T10:31:42.253Z,99713.88
2018-02-25T10:34:08.618Z,99713.14
2018-02-25T10:36:35.017Z,99704.23
2018-02-25T10:39:01.428Z,99696.87
2018-02-25T10:41:27.846Z,99688.39
2018-02-25T10:43:54.226Z,99675.80
2018-02-25T10:46:20.594Z,99663.41
2018-02-25T10:48:46.988Z,99664.80
2018-02-25T10:51:13.349Z,99663.73
2018-02-25T10:53:39.716Z,99658.94
2018-02-25T10:56:06.242Z,99662.73
2018-02-25T10:58:32.673Z,99667.73
2018-02-25T11:01:05.034Z,99672.69
2018-02-25T11:03:31.494Z,99674.80
2018-02-25T11:05:57.881Z,99670.14
2018-02-25T11:08:24.244Z,99672.20
2018-02-25T11:10:50.803Z,99675.47
2018-02-25T11:13:17.254Z,99682.20
2018-02-25T11:15:43.626Z,99690.38
2018-02-25T11:18:09.989Z,99691.81
2018-02-25T11:20:36.430Z,99692.46
2018-02-25T11:23:02.842Z,99686.21
2018-02-25T11:25:29.253Z,99690.27
2018-02-25T11:27:55.705Z,99688.84
2018-02-25T11:30:22.078Z,99685.69
2018-02-25T11:32:48.464Z,99679.61
2018-02-25T11:35:14.873Z,99683.47
2018-02-25T11:37:41.323Z,99680.89
2018-02-25T11:40:07.799Z,99678.98
2018-02-25T11:42:34.154Z,99676.73
2018-02-25T11:45:00.641Z,99672.41
2018-02-25T11:47:27.062Z,99674.93
2018-02-25T11:49:53.417Z,99672.02
2018-02-25T11:52:19.773Z,99670.63
2018-02-25T11:54:46.189Z,99664.27
2018-02-25T11:57:12.574Z,99665.56
2018-02-25T11:59:38.934Z,99665.14
2018-02-25T12:02:05.392Z,99654.16
2018-02-25T12:04:31.806Z,99655.31
2018-02-25T12:06:58.222Z,99657.48
2018-02-25T12:09:24.765Z,99658.34
2018-02-25T12:11:51.322Z,99649.59
2018-02-25T12:14:17.716Z,99647.33
2018-02-25T12:16:44.111Z,99640.98
2018-02-25T12:19:10.469Z,99643.84
2018-02-25T12:21:36.814Z,99642.71
2018-02-25T12:24:03.382Z,99645.36
2018-02-25T12:26:29.762Z,99642.22
2018-02-25T12:28:56.123Z,99635.62
2018-02-25T12:31:22.562Z,99626.02
2018-02-25T12:33:48.893Z,99627.53
2018-02-25T12:36:15.283Z,99627.14
2018-02-25T12:38:42.037Z,99625.52
2018-02-25T12:41:08.440Z,99623.28
2018-02-25T12:43:34.856Z,99621.61
2018-02-25T12:46:01.266Z,99613.84
2018-02-25T12:48:27.640Z,99607.23
2018-02-25T12:50:54.025Z,99609.86
2018-02-25T12:53:20.493Z,99605.11
2018-02-25T12:55:46.838Z,99601.10
2018-02-25T12:58:13.248Z,99596.31
2018-02-25T13:00:39.707Z,99605.84
2018-02-25T13:03:06.064Z,99597.25
2018-02-25T13:05:32.461Z,99603.59
2018-02-25T13:07:58.797Z,99596.39
2018-02-25T13:10:25.225Z,99589.78
2018-02-25T13:12:51.664Z,99591.71
2018-02-25T13:15:18.118Z,99597.19
2018-02-25T13:17:44.448Z,99590.21
2018-02-25T13:20:10.858Z,99587.17
2018-02-25T13:22:37.233Z,99590.97
2018-02-25T13:25:03.706Z,99577.70
2018-02-25T13:27:30.053Z,99580.09
2018-02-25T13:29:56.465Z,99575.47
2018-02-25T13:32:22.926Z,99572.17
2018-02-25T13:34:49.379Z,99564.11
2018-02-25T13:37:15.797Z,99561.93
2018-02-25T13:39:42.126Z,99562.11
2018-02-25T13:42:08.494Z,99564.66
2018-02-25T13:44:34.917Z,99571.53
2018-02-25T13:47:01.294Z,99565.38
2018-02-25T13:49:27.691Z,99573.33
2018-02-25T13:51:54.242Z,99566.57
2018-02-25T13:54:20.781Z,99574.11
2018-02-25T13:56:47.150Z,99572.59
2018-02-25T13:59:13.658Z,99568.02
2018-02-25T14:01:40.126Z,99569.64
2018-02-25T14:04:06.470Z,99562.15
2018-02-25T14:06:32.809Z,99568.01
2018-02-25T14:08:59.165Z,99568.26
2018-02-25T14:11:32.600Z,99560.75
2018-02-25T14:13:58.945Z,99565.97
2018-02-25T14:16:25.291Z,99563.78
2018-02-25T14:18:51.839Z,99572.34
2018-02-25T14:21:18.266Z,99570.77
2018-02-25T14:23:44.678Z,99576.16
2018-02-25T14:26:11.137Z,99563.98
2018-02-25T14:28:37.498Z,99564.55
2018-02-25T14:31:03.861Z,99568.48
2018-02-25T14:33:30.213Z,99572.94
2018-02-25T14:35:56.594Z,99569.73
2018-02-25T14:38:22.933Z,99574.73
2018-02-25T14:40:49.269Z,99577.75
2018-02-25T14:43:15.788Z,99578.33
2018-02-25T14:45:42.213Z,99582.95
2018-02-25T14:48:08.598Z,99586.81
2018-02-25T14:50:35.029Z,99585.12
2018-02-25T14:53:01.442Z,99589.71
2018-02-25T14:55:27.823Z,99591.13
2018-02-25T14:57:54.185Z,99588.70
2018-02-25T15:00:20.594Z,99586.16
2018-02-25T15:02:47.002Z,99589.18
2018-02-25T15:05:13.430Z,99591.44
2018-02-25T15:07:39.809Z,99598.82
2018-02-25T15:10:06.459Z,99598.02
2018-02-25T15:12:32.934Z,99607.51
2018-02-25T15:14:59.341Z,99602.85
2018-02-25T15:17:25.698Z,99605.31
2018-02-25T15:19:52.114Z,99602.67
2018-02-25T15:22:18.505Z,99596.39
2018-02-25T15:24:44.895Z,99601.95
2018-02-25T15:27:11.293Z,99601.53
2018-02-25T15:29:37.690Z,99604.56
2018-02-25T15:32:04.045Z,99605.91
2018-02-25T15:34:30.411Z,99608.24
2018-02-25T15:36:56.844Z,99610.48
2018-02-25T15:39:23.255Z,99611.02
2018-02-25T15:41:49.660Z,99607.12
2018-02-25T15:44:16.101Z,99605.74
2018-02-25T15:46:42.534Z,99601.48
2018-02-25T15:49:08.926Z,99605.13
2018-02-25T15:51:35.472Z,99605.23
2018-02-25T15:54:01.842Z,99617.46
2018-02-25T15:56:28.346Z,99623.59
2018-02-25T15:58:54.777Z,99619.46
2018-02-25T16:01:21.162Z,99626.01
2018-02-25T16:03:47.566Z,99612.88
2018-02-25T16:06:14.907Z,99624.81
2018-02-25T16:08:41.261Z,99622.84
2018-02-25T16:11:07.716Z,99634.34
2018-02-25T16:13:34.150Z,99636.88
2018-02-25T16:16:00.536Z,99631.81
2018-02-25T16:18:26.966Z,99633.28
2018-02-25T16:20:53.418Z,99635.89
2018-02-25T16:23:19.810Z,99632.75
2018-02-25T16:25:46.237Z,99629.09
2018-02-25T16:28:12.681Z,99637.56
2018-02-25T16:30:39.159Z,99638.42
2018-02-25T16:33:05.609Z,99640.34
2018-02-25T16:35:32.038Z,99634.21
2018-02-25T16:37:58.607Z,99643.20
2018-02-25T16:40:25.018Z,99652.00
2018-02-25T16:42:51.496Z,99654.70
2018-02-25T16:45:17.950Z,99659.27
2018-02-25T16:47:44.348Z,99661.67
2018-02-25T16:50:10.781Z,99659.98
2018-02-25T16:52:37.249Z,99653.33
2018-02-25T16:55:03.650Z,99664.31
2018-02-25T16:57:30.218Z,99656.67
2018-02-25T16:59:56.713Z,99666.16
2018-02-25T17:02:23.145Z,99665.61
2018-02-25T17:04:49.622Z,99667.64
2018-02-25T17:07:16.218Z,99675.02
2018-02-25T17:09:42.666Z,99661.23
2018-02-25T17:12:09.065Z,99658.91
2018-02-25T17:14:35.625Z,99665.65
2018-02-25T17:17:02.030Z,99664.03
2018-02-25T17:19:28.541Z,99668.25
2018-02-25T17:21:54.900Z,99668.34
2018-02-25T17:24:21.301Z,99662.42
2018-02-25T17:26:47.821Z,99662.86
2018-02-25T17:29:14.246Z,99654.11
2018-02-25T17:31:40.610Z,99650.95
2018-02-25T17:34:07.046Z,99649.19
2018-02-25T17:36:33.549Z,99642.04
2018-02-25T17:38:59.993Z,99636.24
2018-02-25T17:41:26.441Z,99643.59
2018-02-25T17:43:52.826Z,99643.17
2018-02-25T17:46:19.202Z,99646.37
2018-02-25T17:48:45.786Z,99645.94
2018-02-25T17:51:12.198Z,99645.69
2018-02-25T17:53:38.598Z,99645.67
2018-02-25T17:56:05.025Z,99643.22
2018-02-25T17:58:31.421Z,99638.70
2018-02-25T18:00:57.774Z,99639.09
2018-02-25T18:03:24.181Z,99637.13
2018-02-25T18:05:53.329Z,99634.64
2018-02-25T18:08:20.863Z,99639.23
2018-02-25T18:10:50.710Z,99638.92
2018-02-25T18:13:18.184Z,99641.97
2018-02-25T18:15:44.590Z,99645.51
2018-02-25T18:18:12.077Z,99652.11
2018-02-25T18:20:39.458Z,99652.58
2018-02-25T18:23:05.956Z,99653.08
2018-02-25T18:25:32.377Z,99644.30
2018-02-25T18:27:59.708Z,99643.53
2018-02-25T18:30:34.133Z,99641.27
2018-02-25T18:33:09.359Z,99644.52
2018-02-25T18:35:37.694Z,99646.41
2018-02-25T18:38:05.195Z,99649.22
2018-02-25T18:40:31.643Z,99643.91
2018-02-25T18:42:58.031Z,99647.88
2018-02-25T18:45:25.335Z,99647.46
2018-02-25T18:47:51.808Z,99647.75
2018-02-25T18:50:19.209Z,99642.75
2018-02-25T18:52:45.641Z,99645.78
2018-02-25T18:55:14.766Z,99646.09
2018-02-25T18:57:41.195Z,99644.01
2018-02-25T19:00:08.414Z,99637.98
2018-02-25T19:02:35.003Z,99636.42
2018-02-25T19:05:04.334Z,99635.24
2018-02-25T19:07:31.753Z,99633.55
2018-02-25T19:09:59.206Z,99626.48
2018-02-25T19:12:25.586Z,99630.53
2018-02-25T19:14:53.085Z,99634.62
2018-02-25T19:17:19.493Z,99632.94
2018-02-25T19:19:56.167Z,99632.73
2018-02-25T19:22:24.299Z,99630.03
2018-02-25T19:24:51.593Z,99635.79
2018-02-25T19:27:18.937Z,99631.45
2018-02-25T19:29:45.324Z,99633.70
2018-02-25T19:32:17.911Z,99641.18
2018-02-25T19:35:02.303Z,99631.25
2018-02-25T19:37:36.481Z,99632.95
2018-02-25T19:40:24.286Z,99630.00
2018-02-25T19:42:53.887Z,99628.59
2018-02-25T19:45:22.494Z,99625.50
2018-02-25T19:47:50.489Z,99624.36
2018-02-25T19:50:18.217Z,99617.83
2018-02-25T19:52:56.425Z,99616.92
2018-02-25T19:55:30.859Z,99616.52
2018-02-25T19:58:00.974Z,99614.73
2018-02-25T20:00:31.865Z,99622.21
2018-02-25T20:03:04.186Z,99625.64
2018-02-25T20:05:35.837Z,99621.61
2018-02-25T20:08:07.801Z,99624.88
2018-02-25T20:10:37.055Z,99622.41
2018-02-25T20:13:03.907Z,99618.66
2018-02-25T20:15:35.227Z,99612.77
2018-02-25T20:18:05.973Z,99610.41
2018-02-25T20:20:33.444Z,99612.14
2018-02-25T20:23:03.549Z,99607.62
2018-02-25T20:25:43.857Z,99604.50
2018-02-25T20:28:11.526Z,99610.22
2018-02-25T20:30:40.146Z,99608.39
2018-02-25T20:33:11.103Z,99615.94
2018-02-25T20:35:38.396Z,99615.02
2018-02-25T20:38:04.738Z,99610.29
2018-02-25T20:40:34.678Z,99621.24
2018-02-25T20:43:10.410Z,99615.06
2018-02-25T20:45:52.401Z,99623.59
2018-02-25T20:48:18.734Z,99624.94
2018-02-25T20:50:45.070Z,99630.47
2018-02-25T20:53:13.489Z,99626.97
2018-02-25T20:55:41.189Z,99620.91
2018-02-25T20:58:07.556Z,99624.78
2018-02-25T21:00:35.112Z,99624.12
2018-02-25T21:03:01.629Z,99621.31
2018-02-25T21:05:27.981Z,99616.09
2018-02-25T21:07:54.369Z,99615.00
2018-02-25T21:10:20.780Z,99607.39
2018-02-25T21:12:47.169Z,99603.97
2018-02-25T21:15:13.533Z,99606.93
2018-02-25T21:17:39.898Z,99600.85
2018-02-25T21:20:06.289Z,99595.70
2018-02-25T21:22:32.625Z,99593.44
2018-02-25T21:24:58.964Z,99595.83
2018-02-25T21:27:25.337Z,99593.55
2018-02-25T21:29:51.682Z,99595.93
2018-02-25T21:32:18.013Z,99601.17
2018-02-25T21:34:44.364Z,99597.56
2018-02-25T21:37:10.689Z,99586.19
2018-02-25T21:39:37.013Z,99589.95
2018-02-25T21:42:03.337Z,99593.00
2018-02-25T21:44:29.734Z,99597.50
2018-02-25T21:46:56.072Z,99604.71
2018-02-25T21:49:22.422Z,99601.92
2018-02-25T21:51:48.801Z,99604.00
2018-02-25T21:54:21.345Z,99592.58
2018-02-25T21:56:53.685Z,99592.62
2018-02-25T22:12:42.678Z,99579.43
2018-02-25T22:15:09.010Z,99589.89
2018-02-25T22:17:35.369Z,99587.82
2018-02-25T22:20:01.729Z,99591.92
2018-02-25T22:22:28.069Z,99589.58
2018-02-25T22:24:54.413Z,99582.33
2018-02-25T22:27:20.767Z,99568.45
2018-02-25T22:29:47.171Z,99551.99
2018-02-25T22:32:13.505Z,99556.50
2018-02-25T22:34:39.853Z,99552.83
2018-02-25T22:37:06.217Z,99553.08
2018-02-25T22:39:32.549Z,99560.92
2018-02-25T22:41:58.901Z,99568.73
2018-02-25T22:44:25.226Z,99575.63
2018-02-25T22:46:51.562Z,99579.92
2018-02-25T22:49:17.883Z,99582.56
2018-02-25T22:51:44.234Z,99584.62
2018-02-25T22:54:10.566Z,99584.78
2018-02-25T22:56:36.886Z,99578.84
2018-02-25T22:59:03.212Z,99579.48
2018-02-25T23:01:29.542Z,99577.18
2018-02-25T23:03:55.885Z,99572.38
2018-02-25T23:06:22.221Z,99570.16
2018-02-25T23:08:48.570Z,99561.06
2018-02-25T23:11:14.902Z,99555.88
2018-02-25T23:13:41.248Z,99558.90
2018-02-25T23:16:07.610Z,99551.00
2018-02-25T23:18:33.965Z,99555.58
2018-02-25T23:21:00.305Z,99559.39
2018-02-25T23:23:26.645Z,99561.89
2018-02-25T23:25:52.990Z,99553.89
2018-02-25T23:28:19.325Z,99555.91
2018-02-25T23:30:45.698Z,99557.63
2018-02-25T23:33:12.086Z,99553.93
2018-02-25T23:35:38.570Z,99549.41
2018-02-25T23:38:04.949Z,99545.09
2018-02-25T23:40:31.300Z,99542.10
2018-02-25T23:42:57.657Z,99528.52
2018-02-25T23:45:23.991Z,99531.10
2018-02-25T23:47:50.320Z,99532.06
2018-02-25T23:50:16.658Z,99529.45
2018-02-25T23:52:42.985Z,99522.25
2018-02-25T23:55:09.365Z,99520.44
2018-02-25T23:57:35.718Z,99518.23
